createdAt,value
2018-06-09T00:00:26.964Z,42.92
2018-06-09T00:02:55.316Z,41.95
2018-06-09T00:05:23.665Z,42.75
2018-06-09T00:07:51.995Z,44.88
2018-06-09T00:10:20.350Z,43.77
2018-06-09T00:12:48.730Z,43.16
2018-06-09T00:15:17.542Z,42.46
2018-06-09T00:17:45.885Z,42.70
2018-06-09T00:20:14.214Z,43.71
2018-06-09T00:22:42.551Z,43.62
2018-06-09T00:25:10.899Z,43.51
2018-06-09T00:27:39.247Z,44.25
2018-06-09T00:30:07.599Z,43.80
2018-06-09T00:32:35.950Z,44.43
2018-06-09T00:35:04.316Z,43.92
2018-06-09T00:37:32.636Z,43.81
2018-06-09T00:40:00.971Z,43.85
2018-06-09T00:42:29.315Z,43.72
2018-06-09T00:44:57.653Z,44.11
2018-06-09T00:47:26.027Z,43.88
2018-06-09T00:49:54.359Z,44.16
2018-06-09T00:52:22.685Z,44.41
2018-06-09T00:54:51.028Z,45.25
2018-06-09T00:57:19.371Z,44.38
2018-06-09T00:59:47.714Z,43.90
2018-06-09T01:02:16.053Z,44.10
2018-06-09T01:04:44.450Z,44.35
2018-06-09T01:07:12.790Z,45.52
2018-06-09T01:09:41.128Z,46.86
2018-06-09T01:12:09.456Z,44.92
2018-06-09T01:14:37.791Z,44.41
2018-06-09T01:17:06.144Z,45.63
2018-06-09T01:19:34.487Z,44.97
2018-06-09T01:22:02.828Z,45.51
2018-06-09T01:24:31.141Z,45.21
2018-06-09T01:26:59.547Z,46.09
2018-06-09T01:29:27.883Z,45.78
2018-06-09T01:31:56.236Z,45.60
2018-06-09T01:34:24.569Z,46.22
2018-06-09T01:36:52.899Z,45.85
2018-06-09T01:39:21.204Z,45.71
2018-06-09T01:41:49.530Z,46.31
2018-06-09T01:44:17.855Z,45.74
2018-06-09T01:46:46.176Z,46.51
2018-06-09T01:49:14.519Z,46.41
2018-06-09T01:51:42.880Z,45.99
2018-06-09T01:54:11.284Z,46.57
2018-06-09T01:56:39.616Z,46.93
2018-06-09T01:59:07.930Z,46.66
2018-06-09T02:01:36.257Z,46.64
2018-06-09T02:04:04.601Z,46.64
2018-06-09T02:06:32.927Z,47.04
2018-06-09T02:09:01.247Z,48.16
2018-06-09T02:11:29.558Z,46.74
2018-06-09T02:13:57.897Z,47.92
2018-06-09T02:16:26.232Z,48.67
2018-06-09T02:18:54.548Z,50.06
2018-06-09T02:21:22.888Z,50.36
2018-06-09T02:23:51.208Z,47.50
2018-06-09T02:26:19.637Z,48.28
2018-06-09T02:28:47.968Z,48.80
2018-06-09T02:31:16.305Z,50.12
2018-06-09T02:33:44.614Z,48.92
2018-06-09T02:36:12.949Z,50.75
2018-06-09T02:38:41.252Z,51.00
2018-06-09T02:41:09.583Z,50.62
2018-06-09T02:43:37.899Z,49.60
2018-06-09T02:46:06.224Z,49.58
2018-06-09T02:48:34.554Z,50.51
2018-06-09T02:51:02.905Z,51.27
2018-06-09T02:53:31.233Z,50.22
2018-06-09T02:55:59.588Z,49.87
2018-06-09T02:58:27.965Z,51.38
2018-06-09T03:00:56.289Z,50.91
2018-06-09T03:03:24.656Z,50.24
2018-06-09T03:05:52.998Z,49.75
2018-06-09T03:08:21.302Z,50.47
2018-06-09T03:10:49.631Z,50.01
2018-06-09T03:13:17.955Z,49.27
2018-06-09T03:15:46.287Z,48.59
2018-06-09T03:18:14.603Z,48.79
2018-06-09T03:20:43.035Z,48.94
2018-06-09T03:23:11.404Z,49.42
2018-06-09T03:25:39.715Z,49.18
2018-06-09T03:28:08.037Z,48.56
2018-06-09T03:30:36.363Z,50.04
2018-06-09T03:33:04.728Z,49.43
2018-06-09T03:35:33.071Z,50.70
2018-06-09T03:38:01.428Z,49.42
2018-06-09T03:40:29.771Z,50.56
2018-06-09T03:42:58.075Z,49.31
2018-06-09T03:45:26.396Z,49.69
2018-06-09T03:47:54.726Z,50.96
2018-06-09T03:50:23.056Z,50.98
2018-06-09T03:52:51.387Z,50.50
2018-06-09T03:55:19.736Z,49.33
2018-06-09T03:57:48.080Z,49.80
2018-06-09T04:00:16.422Z,49.28
2018-06-09T04:02:44.741Z,49.11
2018-06-09T04:05:13.077Z,50.04
2018-06-09T04:07:41.536Z,49.49
2018-06-09T04:10:09.867Z,50.21
2018-06-09T04:12:38.216Z,49.86
2018-06-09T04:15:06.723Z,50.20
2018-06-09T04:17:35.076Z,50.38
2018-06-09T04:20:03.430Z,50.48
2018-06-09T04:22:31.776Z,51.08
2018-06-09T04:25:00.111Z,51.20
2018-06-09T04:27:28.431Z,49.96
2018-06-09T04:29:57.555Z,49.90
2018-06-09T04:32:25.905Z,50.20
2018-06-09T04:34:54.244Z,50.35
2018-06-09T04:37:22.595Z,50.72
2018-06-09T04:39:50.971Z,50.03
2018-06-09T04:42:19.349Z,49.72
2018-06-09T04:44:47.761Z,50.17
2018-06-09T04:47:16.077Z,48.92
2018-06-09T04:49:44.441Z,50.47
2018-06-09T04:52:12.838Z,48.83
2018-06-09T04:54:41.149Z,49.59
2018-06-09T04:57:09.496Z,49.08
2018-06-09T04:59:37.833Z,48.66
2018-06-09T05:02:06.210Z,49.33
2018-06-09T05:04:34.527Z,48.86
2018-06-09T05:07:02.966Z,48.37
2018-06-09T05:09:31.323Z,48.34
2018-06-09T05:11:59.664Z,48.38
2018-06-09T05:14:28.020Z,47.77
2018-06-09T05:16:56.355Z,48.09
2018-06-09T05:19:24.701Z,48.33
2018-06-09T05:21:53.047Z,48.09
2018-06-09T05:24:21.390Z,47.20
2018-06-09T05:26:49.733Z,47.17
2018-06-09T05:29:18.072Z,47.68
2018-06-09T05:31:46.423Z,46.86
2018-06-09T05:34:14.767Z,47.25
2018-06-09T05:36:43.108Z,46.46
2018-06-09T05:39:11.485Z,46.71
2018-06-09T05:41:39.838Z,45.74
2018-06-09T05:44:08.217Z,46.29
2018-06-09T05:46:36.599Z,46.11
2018-06-09T05:49:04.944Z,45.47
2018-06-09T05:51:33.282Z,45.72
2018-06-09T05:54:01.630Z,45.46
2018-06-09T05:56:29.971Z,44.75
2018-06-09T05:58:58.393Z,43.80
2018-06-09T06:01:26.770Z,45.22
2018-06-09T06:03:55.138Z,45.10
2018-06-09T06:06:23.496Z,44.49
2018-06-09T06:08:51.832Z,44.14
2018-06-09T06:11:20.181Z,44.03
2018-06-09T06:13:48.515Z,44.08
2018-06-09T06:16:16.870Z,43.16
2018-06-09T06:18:45.265Z,43.09
2018-06-09T06:21:13.559Z,43.61
2018-06-09T06:23:41.902Z,44.04
2018-06-09T06:26:10.234Z,43.31
2018-06-09T06:28:38.587Z,42.30
2018-06-09T06:31:06.936Z,42.86
2018-06-09T06:33:35.287Z,42.47
2018-06-09T06:36:03.673Z,41.07
2018-06-09T06:38:32.077Z,42.64
2018-06-09T06:41:00.429Z,40.13
2018-06-09T06:43:28.760Z,41.33
2018-06-09T06:45:57.080Z,39.20
2018-06-09T06:48:25.424Z,42.20
2018-06-09T06:50:53.766Z,37.93
2018-06-09T06:53:22.113Z,38.87
2018-06-09T06:55:50.449Z,37.38
2018-06-09T06:58:18.773Z,37.95
2018-06-09T07:00:47.104Z,37.99
2018-06-09T07:03:15.456Z,36.86
2018-06-09T07:05:43.804Z,37.56
2018-06-09T07:08:12.148Z,37.67
2018-06-09T07:10:40.493Z,36.14
2018-06-09T07:13:08.858Z,38.11
2018-06-09T07:15:37.223Z,35.16
2018-06-09T07:18:05.601Z,36.72
2018-06-09T07:20:33.954Z,35.66
2018-06-09T07:23:02.295Z,34.16
2018-06-09T07:25:30.631Z,34.44
2018-06-09T07:27:58.978Z,32.94
2018-06-09T07:30:27.321Z,34.01
2018-06-09T07:32:55.638Z,31.67
2018-06-09T07:35:23.978Z,31.31
2018-06-09T07:37:52.323Z,32.35
2018-06-09T07:40:20.674Z,29.96
2018-06-09T07:42:49.013Z,29.67
2018-06-09T07:45:17.371Z,28.99
2018-06-09T07:47:45.693Z,28.94
2018-06-09T07:50:14.041Z,28.64
2018-06-09T07:52:42.418Z,26.21
2018-06-09T07:55:10.779Z,28.42
2018-06-09T07:57:39.104Z,28.34
2018-06-09T08:00:07.428Z,27.89
2018-06-09T08:02:35.819Z,27.98
2018-06-09T08:05:04.185Z,28.29
2018-06-09T08:07:32.498Z,27.53
2018-06-09T08:10:00.835Z,26.52
2018-06-09T08:12:29.150Z,26.93
2018-06-09T08:14:58.079Z,26.68
2018-06-09T08:17:26.423Z,27.10
2018-06-09T08:19:54.816Z,25.82
2018-06-09T08:22:23.171Z,23.08
2018-06-09T08:24:51.507Z,22.73
2018-06-09T08:27:19.868Z,24.56
2018-06-09T08:29:48.214Z,25.19
2018-06-09T08:32:16.600Z,24.84
2018-06-09T08:34:44.978Z,25.26
2018-06-09T08:37:13.320Z,20.96
2018-06-09T08:39:41.659Z,23.25
2018-06-09T08:42:10.027Z,21.50
2018-06-09T08:44:38.866Z,19.38
2018-06-09T08:47:07.237Z,21.88
2018-06-09T08:49:35.587Z,20.54
2018-06-09T08:52:04.002Z,20.86
2018-06-09T08:54:32.395Z,21.09
2018-06-09T08:57:00.760Z,19.19
2018-06-09T08:59:29.101Z,20.83
2018-06-09T09:01:57.450Z,18.64
2018-06-09T09:04:25.797Z,20.87
2018-06-09T09:06:54.133Z,18.94
2018-06-09T09:09:22.490Z,19.84
2018-06-09T09:11:50.803Z,19.49
2018-06-09T09:14:19.197Z,20.47
2018-06-09T09:16:47.519Z,20.19
2018-06-09T09:19:15.895Z,20.19
2018-06-09T09:21:44.253Z,18.63
2018-06-09T09:24:12.592Z,20.13
2018-06-09T09:26:40.936Z,19.56
2018-06-09T09:29:09.271Z,19.76
2018-06-09T09:31:37.658Z,20.07
2018-06-09T09:34:06.177Z,21.24
2018-06-09T09:36:34.549Z,19.79
2018-06-09T09:39:02.932Z,20.32
2018-06-09T09:41:31.479Z,19.03
2018-06-09T09:43:59.951Z,19.88
2018-06-09T09:46:28.350Z,19.14
2018-06-09T09:48:56.802Z,19.91
2018-06-09T09:51:25.167Z,20.33
2018-06-09T09:53:53.522Z,19.71
2018-06-09T09:56:21.893Z,20.68
2018-06-09T09:58:50.241Z,19.01
2018-06-09T10:01:18.576Z,19.19
2018-06-09T10:03:46.915Z,16.96
2018-06-09T10:06:15.265Z,18.27
2018-06-09T10:08:43.655Z,19.52
2018-06-09T10:11:11.996Z,17.41
2018-06-09T10:13:40.307Z,17.26
2018-06-09T10:16:08.705Z,16.57
2018-06-09T10:18:37.066Z,17.82
2018-06-09T10:21:05.481Z,17.28
2018-06-09T10:23:33.826Z,17.08
2018-06-09T10:26:02.160Z,16.95
2018-06-09T10:28:30.482Z,19.17
2018-06-09T10:30:58.975Z,18.24
2018-06-09T10:33:27.306Z,17.66
2018-06-09T10:35:55.663Z,19.07
2018-06-09T10:38:23.988Z,18.44
2018-06-09T10:40:52.307Z,18.51
2018-06-09T10:43:20.710Z,17.34
2018-06-09T10:45:49.072Z,18.11
2018-06-09T10:48:17.474Z,19.41
2018-06-09T10:50:45.847Z,19.02
2018-06-09T10:53:14.304Z,19.69
2018-06-09T10:55:42.743Z,19.68
2018-06-09T10:58:11.139Z,20.30
2018-06-09T11:00:52.870Z,22.06
2018-06-09T11:03:21.284Z,22.83
2018-06-09T11:05:49.641Z,22.54
2018-06-09T11:08:18.013Z,23.62
2018-06-09T11:10:46.511Z,22.94
2018-06-09T11:13:14.865Z,24.02
2018-06-09T11:15:43.249Z,23.46
2018-06-09T11:18:11.628Z,23.97
2018-06-09T11:20:40.053Z,25.09
2018-06-09T11:23:08.412Z,24.96
2018-06-09T11:25:36.765Z,25.14
2018-06-09T11:28:05.165Z,25.21
2018-06-09T11:30:33.528Z,23.83
2018-06-09T11:33:01.911Z,25.90
2018-06-09T11:35:31.178Z,26.85
2018-06-09T11:37:59.540Z,25.81
2018-06-09T11:40:28.161Z,26.93
2018-06-09T11:42:56.495Z,26.90
2018-06-09T11:45:24.828Z,26.77
2018-06-09T11:47:53.177Z,27.05
2018-06-09T11:50:21.524Z,26.04
2018-06-09T11:52:49.860Z,26.20
2018-06-09T11:55:18.241Z,26.63
2018-06-09T11:57:46.587Z,27.03
2018-06-09T12:00:14.936Z,27.60
2018-06-09T12:02:43.304Z,27.59
2018-06-09T12:05:11.651Z,27.21
2018-06-09T12:07:39.999Z,27.33
2018-06-09T12:10:08.336Z,26.98
2018-06-09T12:12:36.728Z,28.62
2018-06-09T12:15:05.678Z,28.37
2018-06-09T12:17:34.035Z,28.81
2018-06-09T12:20:02.407Z,29.03
2018-06-09T12:22:30.754Z,28.34
2018-06-09T12:24:59.167Z,28.28
2018-06-09T12:27:27.604Z,28.17
2018-06-09T12:29:55.956Z,28.06
2018-06-09T12:32:24.356Z,28.73
2018-06-09T12:34:52.708Z,28.79
2018-06-09T12:37:21.045Z,28.84
2018-06-09T12:39:49.425Z,27.92
2018-06-09T12:42:17.778Z,28.58
2018-06-09T12:44:46.112Z,29.31
2018-06-09T12:47:14.532Z,29.03
2018-06-09T12:49:42.921Z,28.96
2018-06-09T12:52:11.264Z,29.24
2018-06-09T12:54:39.638Z,29.16
2018-06-09T12:57:07.995Z,29.79
2018-06-09T12:59:36.332Z,29.73
2018-06-09T13:02:04.677Z,29.25
2018-06-09T13:04:33.021Z,29.73
2018-06-09T13:07:01.408Z,29.88
2018-06-09T13:09:29.783Z,30.10
2018-06-09T13:11:58.148Z,29.93
2018-06-09T13:14:26.481Z,30.30
2018-06-09T13:16:54.854Z,30.34
2018-06-09T13:19:23.231Z,29.96
2018-06-09T13:21:51.607Z,29.52
2018-06-09T13:24:19.998Z,29.44
2018-06-09T13:26:48.374Z,29.51
2018-06-09T13:29:16.767Z,29.94
2018-06-09T13:31:45.151Z,29.90
2018-06-09T13:34:13.537Z,29.44
2018-06-09T13:36:41.957Z,29.96
2018-06-09T13:39:10.380Z,30.03
2018-06-09T13:41:38.742Z,29.93
2018-06-09T13:44:07.063Z,30.24
2018-06-09T13:46:35.429Z,30.30
2018-06-09T13:49:03.804Z,30.89
2018-06-09T13:51:32.141Z,30.72
2018-06-09T13:54:00.505Z,31.47
2018-06-09T13:56:28.848Z,31.07
2018-06-09T13:58:57.679Z,31.01
2018-06-09T14:01:26.135Z,31.27
2018-06-09T14:03:54.463Z,30.42
2018-06-09T14:06:22.780Z,30.45
2018-06-09T14:08:51.114Z,30.60
2018-06-09T14:11:19.495Z,30.80
2018-06-09T14:13:47.838Z,30.70
2018-06-09T14:16:16.184Z,31.25
2018-06-09T14:18:44.536Z,30.64
2018-06-09T14:21:12.884Z,30.52
2018-06-09T14:23:41.224Z,31.36
2018-06-09T14:26:09.568Z,32.07
2018-06-09T14:28:37.917Z,31.68
2018-06-09T14:31:06.256Z,31.27
2018-06-09T14:33:34.606Z,30.62
2018-06-09T14:36:02.948Z,30.99
2018-06-09T14:38:31.290Z,31.00
2018-06-09T14:40:59.658Z,31.29
2018-06-09T14:43:28.037Z,30.92
2018-06-09T14:45:56.361Z,31.40
2018-06-09T14:48:24.746Z,30.79
2018-06-09T14:50:53.128Z,30.66
2018-06-09T14:53:21.464Z,30.57
2018-06-09T14:55:49.858Z,30.97
2018-06-09T14:58:18.229Z,30.80
2018-06-09T15:00:46.571Z,30.88
2018-06-09T15:03:14.916Z,30.73
2018-06-09T15:05:43.259Z,30.62
2018-06-09T15:08:11.660Z,30.53
2018-06-09T15:10:40.059Z,30.06
2018-06-09T15:13:08.408Z,30.45
2018-06-09T15:15:36.779Z,30.31
2018-06-09T15:18:05.144Z,30.51
2018-06-09T15:20:33.499Z,30.92
2018-06-09T15:23:01.874Z,30.67
2018-06-09T15:25:30.234Z,30.45
2018-06-09T15:27:58.611Z,30.02
2018-06-09T15:30:26.952Z,30.37
2018-06-09T15:32:55.309Z,29.90
2018-06-09T15:35:23.669Z,30.04
2018-06-09T15:37:51.983Z,29.94
2018-06-09T15:40:20.327Z,30.18
2018-06-09T15:42:48.708Z,30.45
2018-06-09T15:45:17.126Z,30.56
2018-06-09T15:47:45.488Z,30.08
2018-06-09T15:50:13.843Z,30.04
2018-06-09T15:52:42.166Z,30.25
2018-06-09T15:55:10.545Z,30.74
2018-06-09T15:57:38.890Z,30.79
2018-06-09T16:00:07.229Z,30.12
2018-06-09T16:02:35.664Z,30.03
2018-06-09T16:05:04.022Z,31.61
2018-06-09T16:07:32.361Z,30.70
2018-06-09T16:10:00.723Z,30.87
2018-06-09T16:12:29.184Z,30.66
2018-06-09T16:14:57.533Z,31.14
2018-06-09T16:17:25.920Z,31.22
2018-06-09T16:19:54.258Z,31.24
2018-06-09T16:22:22.664Z,31.26
2018-06-09T16:24:51.015Z,31.14
2018-06-09T16:27:19.383Z,30.66
2018-06-09T16:29:47.707Z,30.48
2018-06-09T16:32:16.051Z,30.68
2018-06-09T16:34:44.412Z,30.68
2018-06-09T16:37:12.744Z,30.56
2018-06-09T16:39:41.103Z,30.92
2018-06-09T16:42:09.424Z,30.63
2018-06-09T16:44:37.800Z,30.83
2018-06-09T16:47:06.136Z,30.65
2018-06-09T16:49:34.496Z,30.55
2018-06-09T16:52:02.901Z,30.70
2018-06-09T16:54:31.284Z,30.96
2018-06-09T16:56:59.602Z,31.40
2018-06-09T16:59:27.978Z,31.59
2018-06-09T17:01:56.330Z,31.24
2018-06-09T17:04:24.655Z,31.44
2018-06-09T17:06:52.985Z,31.33
2018-06-09T17:09:21.359Z,31.23
2018-06-09T17:11:49.705Z,31.73
2018-06-09T17:14:18.050Z,31.88
2018-06-09T17:16:46.384Z,31.61
2018-06-09T17:19:14.739Z,31.88
2018-06-09T17:21:43.096Z,31.78
2018-06-09T17:24:11.431Z,31.94
2018-06-09T17:26:39.779Z,32.43
2018-06-09T17:29:08.126Z,32.24
2018-06-09T17:31:36.494Z,32.50
2018-06-09T17:34:04.872Z,32.06
2018-06-09T17:36:33.289Z,32.59
2018-06-09T17:39:01.647Z,32.50
2018-06-09T17:41:30.489Z,32.41
2018-06-09T17:43:58.985Z,32.04
2018-06-09T17:46:27.638Z,32.61
2018-06-09T17:48:56.046Z,32.46
2018-06-09T17:51:24.653Z,32.53
2018-06-09T17:53:53.619Z,32.80
2018-06-09T17:56:22.059Z,32.78
2018-06-09T17:58:50.452Z,32.92
2018-06-09T18:01:18.844Z,32.72
2018-06-09T18:03:47.270Z,32.51
2018-06-09T18:06:16.671Z,32.54
2018-06-09T18:08:45.050Z,32.63
2018-06-09T18:11:14.283Z,33.02
2018-06-09T18:13:42.914Z,36.27
2018-06-09T18:16:11.323Z,38.79
2018-06-09T18:18:39.718Z,38.71
2018-06-09T18:21:08.139Z,41.53
2018-06-09T18:23:36.569Z,42.26
2018-06-09T18:26:05.018Z,42.11
2018-06-09T18:28:33.441Z,43.00
2018-06-09T18:31:01.808Z,43.33
2018-06-09T18:33:30.181Z,44.19
2018-06-09T18:35:58.943Z,42.38
2018-06-09T18:38:28.374Z,45.52
2018-06-09T18:40:57.405Z,43.93
2018-06-09T18:43:26.353Z,45.02
2018-06-09T18:45:54.736Z,46.34
2018-06-09T18:48:23.122Z,44.12
2018-06-09T18:50:51.626Z,46.93
2018-06-09T18:53:20.422Z,46.78
2018-06-09T18:55:48.787Z,46.31
2018-06-09T18:58:18.033Z,46.32
2018-06-09T19:00:46.590Z,47.02
2018-06-09T19:03:15.016Z,45.45
2018-06-09T19:06:00.178Z,43.54
2018-06-09T19:08:28.552Z,45.42
2018-06-09T19:10:57.067Z,46.75
2018-06-09T19:13:40.312Z,44.55
2018-06-09T19:16:08.925Z,48.16
2018-06-09T19:18:39.478Z,45.49
2018-06-09T19:21:07.924Z,48.42
2018-06-09T19:23:36.306Z,48.62
2018-06-09T19:26:07.288Z,46.67
2018-06-09T19:28:35.750Z,48.58
2018-06-09T19:31:04.212Z,48.81
2018-06-09T19:33:49.748Z,49.13
2018-06-09T19:36:18.204Z,46.31
2018-06-09T19:38:47.482Z,48.66
2018-06-09T19:41:16.582Z,47.59
2018-06-09T19:43:45.525Z,50.08
2018-06-09T19:46:14.312Z,48.40
2018-06-09T19:48:42.817Z,47.63
2018-06-09T19:51:11.235Z,48.73
2018-06-09T19:53:39.629Z,47.35
2018-06-09T19:56:08.471Z,47.74
2018-06-09T19:58:36.955Z,47.98
2018-06-09T20:01:06.784Z,47.92
2018-06-09T20:03:35.213Z,50.80
2018-06-09T20:06:03.690Z,49.62
2018-06-09T20:08:32.089Z,47.94
2018-06-09T20:11:00.660Z,48.67
2018-06-09T20:13:29.120Z,50.03
2018-06-09T20:15:57.532Z,51.24
2018-06-09T20:18:25.947Z,48.75
2018-06-09T20:20:54.624Z,48.54
2018-06-09T20:23:23.702Z,49.27
2018-06-09T20:25:53.186Z,49.84
2018-06-09T20:28:21.712Z,50.31
2018-06-09T20:30:50.080Z,52.67
2018-06-09T20:33:18.496Z,49.57
2018-06-09T20:35:46.876Z,50.27
2018-06-09T20:38:15.455Z,50.16
2018-06-09T20:40:43.910Z,49.50
2018-06-09T20:43:12.414Z,50.76
2018-06-09T20:45:40.823Z,51.93
2018-06-09T20:48:09.200Z,52.00
2018-06-09T20:50:37.555Z,50.73
2018-06-09T20:53:05.916Z,50.86
2018-06-09T20:55:34.931Z,50.25
2018-06-09T20:58:04.178Z,50.02
2018-06-09T21:00:32.624Z,50.98
2018-06-09T21:03:01.194Z,51.14
2018-06-09T21:05:29.543Z,50.82
2018-06-09T21:07:57.882Z,50.96
2018-06-09T21:10:26.272Z,52.72
2018-06-09T21:12:55.052Z,51.41
2018-06-09T21:15:24.016Z,53.18
2018-06-09T21:17:52.416Z,51.58
2018-06-09T21:20:20.817Z,54.37
2018-06-09T21:22:49.265Z,52.70
2018-06-09T21:25:17.698Z,53.98
2018-06-09T21:27:51.409Z,54.59
2018-06-09T21:30:25.207Z,52.71
2018-06-09T21:32:58.889Z,53.09
2018-06-09T21:35:43.712Z,52.72
2018-06-09T21:38:18.076Z,53.94
2018-06-09T21:40:49.520Z,53.28
2018-06-09T21:43:23.182Z,53.70
2018-06-09T21:45:52.323Z,53.43
2018-06-09T21:48:21.104Z,54.34
2018-06-09T21:50:50.032Z,52.46
2018-06-09T21:53:18.456Z,52.85
2018-06-09T21:55:47.023Z,53.27
2018-06-09T21:58:15.438Z,53.17
2018-06-09T22:00:43.791Z,53.05
2018-06-09T22:03:12.192Z,55.45
2018-06-09T22:05:40.589Z,52.89
2018-06-09T22:08:08.998Z,53.96
2018-06-09T22:10:37.412Z,53.66
2018-06-09T22:13:05.939Z,53.84
2018-06-09T22:15:34.364Z,54.11
2018-06-09T22:18:02.792Z,53.95
2018-06-09T22:20:31.491Z,54.03
2018-06-09T22:23:00.135Z,53.91
2018-06-09T22:25:33.821Z,53.40
2018-06-09T22:28:02.273Z,54.05
2018-06-09T22:30:30.687Z,53.88
2018-06-09T22:32:59.076Z,53.89
2018-06-09T22:35:27.472Z,57.73
2018-06-09T22:37:55.921Z,55.17
2018-06-09T22:40:24.298Z,56.57
2018-06-09T22:42:52.652Z,58.33
2018-06-09T22:45:21.057Z,58.59
2018-06-09T22:47:49.441Z,60.28
2018-06-09T22:50:17.837Z,57.82
2018-06-09T22:52:46.269Z,58.22
2018-06-09T22:55:14.713Z,56.94
2018-06-09T22:57:43.167Z,55.81
2018-06-09T23:00:17.071Z,58.75
2018-06-09T23:02:45.532Z,56.78
2018-06-09T23:05:13.960Z,56.21
2018-06-09T23:07:42.323Z,57.46
2018-06-09T23:10:10.759Z,58.22
2018-06-09T23:12:39.138Z,60.79
2018-06-09T23:15:07.553Z,60.10
2018-06-09T23:17:35.903Z,60.31
2018-06-09T23:20:04.315Z,58.28
2018-06-09T23:22:32.711Z,57.73
2018-06-09T23:25:01.076Z,60.12
2018-06-09T23:27:29.886Z,61.48
2018-06-09T23:29:58.472Z,59.27
2018-06-09T23:32:27.038Z,58.48
2018-06-09T23:34:55.554Z,60.02
2018-06-09T23:37:24.174Z,59.06
2018-06-09T23:39:52.675Z,61.69
2018-06-09T23:42:21.091Z,59.09
2018-06-09T23:44:49.579Z,59.75
2018-06-09T23:47:18.103Z,60.32
2018-06-09T23:49:46.720Z,59.00
2018-06-09T23:52:16.265Z,59.87
2018-06-09T23:54:44.838Z,61.12
2018-06-09T23:57:13.695Z,59.33
2018-06-09T23:59:42.273Z,59.80
